sensor_id;sensor_type;location;lat;lon;timestamp;pressure;altitude;pressure_sealevel;temperature;humidity
19236;BME280;9752;54.270;12.470;2023-07-13T00:04:02;102531.47;;;16.17;100.00
19236;BME280;9752;54.270;12.470;2023-07-13T00:09:05;102522.91;;;16.20;100.00
19236;BME280;9752;54.270;12.470;2023-07-13T00:14:07;102558.16;;;16.25;100.00
19236;BME280;9752;54.270;12.470;2023-07-13T00:19:10;102658.66;;;16.27;100.00
19236;BME280;9752;54.270;12.470;2023-07-13T00:24:15;102643.69;;;16.38;100.00
19236;BME280;9752;54.270;12.470;2023-07-13T00:29:22;102672.28;;;16.48;100.00
19236;BME280;9752;54.270;12.470;2023-07-13T00:34:24;102639.34;;;16.38;100.00
19236;BME280;9752;54.270;12.470;2023-07-13T00:39:27;102627.47;;;16.30;100.00
19236;BME280;9752;54.270;12.470;2023-07-13T00:44:29;102608.00;;;16.27;100.00
19236;BME280;9752;54.270;12.470;2023-07-13T00:49:32;102615.38;;;16.19;100.00
19236;BME280;9752;54.270;12.470;2023-07-13T00:54:39;102728.16;;;16.22;100.00
19236;BME280;9752;54.270;12.470;2023-07-13T00:59:46;102617.69;;;16.28;100.00
19236;BME280;9752;54.270;12.470;2023-07-13T01:04:49;102615.16;;;16.29;100.00
19236;BME280;9752;54.270;12.470;2023-07-13T01:09:52;102599.25;;;16.26;100.00
19236;BME280;9752;54.270;12.470;2023-07-13T01:14:57;102597.16;;;16.20;100.00
19236;BME280;9752;54.270;12.470;2023-07-13T01:20:00;102601.44;;;16.20;100.00
19236;BME280;9752;54.270;12.470;2023-07-13T01:25:05;102621.50;;;16.19;100.00
19236;BME280;9752;54.270;12.470;2023-07-13T01:30:07;102621.72;;;16.23;100.00
19236;BME280;9752;54.270;12.470;2023-07-13T01:35:09;102648.59;;;16.20;100.00
19236;BME280;9752;54.270;12.470;2023-07-13T01:40:14;102647.69;;;16.19;100.00
19236;BME280;9752;54.270;12.470;2023-07-13T01:45:16;102633.81;;;16.20;100.00
19236;BME280;9752;54.270;12.470;2023-07-13T01:50:17;102647.91;;;16.23;100.00
19236;BME280;9752;54.270;12.470;2023-07-13T01:55:22;102677.94;;;16.28;100.00
19236;BME280;9752;54.270;12.470;2023-07-13T02:00:24;102672.59;;;16.26;100.00
19236;BME280;9752;54.270;12.470;2023-07-13T02:05:26;102656.03;;;16.27;100.00
19236;BME280;9752;54.270;12.470;2023-07-13T02:10:29;102655.16;;;16.27;100.00
19236;BME280;9752;54.270;12.470;2023-07-13T02:15:31;102642.56;;;16.21;100.00
19236;BME280;9752;54.270;12.470;2023-07-13T02:20:33;102647.69;;;16.19;100.00
19236;BME280;9752;54.270;12.470;2023-07-13T02:25:36;102653.53;;;16.15;100.00
19236;BME280;9752;54.270;12.470;2023-07-13T02:30:37;102661.28;;;16.14;100.00
19236;BME280;9752;54.270;12.470;2023-07-13T02:35:39;102655.91;;;16.12;100.00
19236;BME280;9752;54.270;12.470;2023-07-13T02:40:42;102670.53;;;16.09;100.00
19236;BME280;9752;54.270;12.470;2023-07-13T02:45:44;102668.59;;;16.06;100.00
19236;BME280;9752;54.270;12.470;2023-07-13T02:50:46;102711.78;;;15.99;100.00
19236;BME280;9752;54.270;12.470;2023-07-13T02:55:49;102703.41;;;15.92;100.00
19236;BME280;9752;54.270;12.470;2023-07-13T03:00:51;102719.59;;;15.86;100.00
19236;BME280;9752;54.270;12.470;2023-07-13T03:05:58;102743.72;;;15.82;100.00
19236;BME280;9752;54.270;12.470;2023-07-13T03:11:09;102756.81;;;15.70;100.00
19236;BME280;9752;54.270;12.470;2023-07-13T03:16:15;102769.00;;;15.70;100.00
19236;BME280;9752;54.270;12.470;2023-07-13T03:21:19;102780.16;;;15.55;100.00
19236;BME280;9752;54.270;12.470;2023-07-13T03:26:22;102771.47;;;15.43;100.00
19236;BME280;9752;54.270;12.470;2023-07-13T03:31:26;102782.25;;;15.36;100.00
19236;BME280;9752;54.270;12.470;2023-07-13T03:36:30;102797.97;;;15.24;100.00
19236;BME280;9752;54.270;12.470;2023-07-13T03:41:37;102827.19;;;15.07;100.00
19236;BME280;9752;54.270;12.470;2023-07-13T03:46:40;102843.66;;;15.06;100.00
19236;BME280;9752;54.270;12.470;2023-07-13T03:51:42;102840.91;;;15.04;100.00
19236;BME280;9752;54.270;12.470;2023-07-13T03:56:45;102851.28;;;15.02;100.00
19236;BME280;9752;54.270;12.470;2023-07-13T04:01:47;102853.66;;;14.99;100.00
19236;BME280;9752;54.270;12.470;2023-07-13T04:06:49;102862.06;;;15.07;100.00
19236;BME280;9752;54.270;12.470;2023-07-13T04:11:54;102926.72;;;15.10;100.00
19236;BME280;9752;54.270;12.470;2023-07-13T04:16:56;102868.00;;;15.16;100.00
19236;BME280;9752;54.270;12.470;2023-07-13T04:21:58;102881.19;;;15.18;100.00
19236;BME280;9752;54.270;12.470;2023-07-13T04:27:01;103069.50;;;15.19;100.00
19236;BME280;9752;54.270;12.470;2023-07-13T04:32:04;102921.19;;;15.29;100.00
19236;BME280;9752;54.270;12.470;2023-07-13T04:37:06;102875.38;;;15.34;100.00
19236;BME280;9752;54.270;12.470;2023-07-13T04:42:09;102879.38;;;15.40;100.00
19236;BME280;9752;54.270;12.470;2023-07-13T04:47:11;102858.44;;;15.52;100.00
19236;BME280;9752;54.270;12.470;2023-07-13T04:52:12;102872.75;;;15.69;100.00
19236;BME280;9752;54.270;12.470;2023-07-13T04:57:15;102854.88;;;15.87;100.00
19236;BME280;9752;54.270;12.470;2023-07-13T05:02:17;102830.31;;;16.10;100.00
19236;BME280;9752;54.270;12.470;2023-07-13T05:07:19;102822.03;;;16.29;100.00
19236;BME280;9752;54.270;12.470;2023-07-13T05:12:22;102811.22;;;16.50;100.00
19236;BME280;9752;54.270;12.470;2023-07-13T05:17:24;102761.97;;;16.71;100.00
19236;BME280;9752;54.270;12.470;2023-07-13T05:22:25;102721.59;;;16.94;100.00
19236;BME280;9752;54.270;12.470;2023-07-13T05:27:29;102646.13;;;17.16;100.00
19236;BME280;9752;54.270;12.470;2023-07-13T05:32:31;102604.16;;;17.45;100.00
19236;BME280;9752;54.270;12.470;2023-07-13T05:37:32;102547.09;;;17.70;100.00
19236;BME280;9752;54.270;12.470;2023-07-13T05:42:35;102671.03;;;17.94;100.00
19236;BME280;9752;54.270;12.470;2023-07-13T05:47:37;102396.81;;;18.21;100.00
19236;BME280;9752;54.270;12.470;2023-07-13T05:52:38;102255.69;;;18.51;100.00
19236;BME280;9752;54.270;12.470;2023-07-13T05:57:41;102247.84;;;18.69;100.00
19236;BME280;9752;54.270;12.470;2023-07-13T06:02:43;102218.66;;;18.81;100.00
19236;BME280;9752;54.270;12.470;2023-07-13T06:07:45;102263.22;;;19.14;100.00
19236;BME280;9752;54.270;12.470;2023-07-13T06:12:48;102664.16;;;19.02;100.00
19236;BME280;9752;54.270;12.470;2023-07-13T06:17:49;102405.16;;;19.46;100.00
19236;BME280;9752;54.270;12.470;2023-07-13T06:22:51;102295.03;;;19.56;100.00
19236;BME280;9752;54.270;12.470;2023-07-13T06:27:54;102403.06;;;19.75;100.00
19236;BME280;9752;54.270;12.470;2023-07-13T06:32:55;102317.59;;;19.86;100.00
19236;BME280;9752;54.270;12.470;2023-07-13T06:37:57;102266.34;;;19.99;100.00
19236;BME280;9752;54.270;12.470;2023-07-13T06:43:00;102266.31;;;20.17;100.00
19236;BME280;9752;54.270;12.470;2023-07-13T06:48:02;102233.44;;;20.50;100.00
19236;BME280;9752;54.270;12.470;2023-07-13T06:53:04;102213.56;;;20.58;100.00
19236;BME280;9752;54.270;12.470;2023-07-13T06:58:07;102202.00;;;20.54;100.00
19236;BME280;9752;54.270;12.470;2023-07-13T07:03:08;102213.91;;;20.65;100.00
19236;BME280;9752;54.270;12.470;2023-07-13T07:08:10;102233.88;;;20.39;100.00
19236;BME280;9752;54.270;12.470;2023-07-13T07:13:13;102237.94;;;20.72;100.00
19236;BME280;9752;54.270;12.470;2023-07-13T07:18:15;102246.50;;;21.32;100.00
19236;BME280;9752;54.270;12.470;2023-07-13T07:23:16;102239.19;;;21.25;100.00
19236;BME280;9752;54.270;12.470;2023-07-13T07:28:20;102227.16;;;20.67;100.00
19236;BME280;9752;54.270;12.470;2023-07-13T07:33:22;102229.09;;;21.37;100.00
19236;BME280;9752;54.270;12.470;2023-07-13T07:38:24;102221.69;;;21.72;100.00
19236;BME280;9752;54.270;12.470;2023-07-13T07:43:27;102224.81;;;21.62;100.00
19236;BME280;9752;54.270;12.470;2023-07-13T07:48:29;102221.78;;;21.75;100.00
19236;BME280;9752;54.270;12.470;2023-07-13T07:53:31;102216.50;;;21.99;100.00
19236;BME280;9752;54.270;12.470;2023-07-13T07:58:34;102214.00;;;22.04;100.00
19236;BME280;9752;54.270;12.470;2023-07-13T08:03:35;102217.09;;;22.16;100.00
19236;BME280;9752;54.270;12.470;2023-07-13T08:08:37;102194.34;;;21.25;100.00
19236;BME280;9752;54.270;12.470;2023-07-13T08:13:40;102185.44;;;21.45;100.00
19236;BME280;9752;54.270;12.470;2023-07-13T08:18:41;102194.63;;;22.28;100.00
19236;BME280;9752;54.270;12.470;2023-07-13T08:23:43;102174.41;;;20.88;100.00
19236;BME280;9752;54.270;12.470;2023-07-13T08:28:46;102174.53;;;20.91;100.00
19236;BME280;9752;54.270;12.470;2023-07-13T08:33:48;102175.59;;;21.64;100.00
19236;BME280;9752;54.270;12.470;2023-07-13T08:38:49;102166.03;;;21.21;100.00
19236;BME280;9752;54.270;12.470;2023-07-13T08:43:56;102180.03;;;21.42;100.00
19236;BME280;9752;54.270;12.470;2023-07-13T08:49:01;102176.16;;;21.33;100.00
19236;BME280;9752;54.270;12.470;2023-07-13T08:54:10;102181.66;;;22.35;100.00
19236;BME280;9752;54.270;12.470;2023-07-13T08:59:16;102174.16;;;21.98;100.00
19236;BME280;9752;54.270;12.470;2023-07-13T09:04:20;102157.56;;;21.07;100.00
19236;BME280;9752;54.270;12.470;2023-07-13T09:09:33;102157.16;;;20.74;100.00
19236;BME280;9752;54.270;12.470;2023-07-13T09:14:43;102143.44;;;20.19;100.00
19236;BME280;9752;54.270;12.470;2023-07-13T09:19:49;102142.25;;;20.13;100.00
19236;BME280;9752;54.270;12.470;2023-07-13T09:25:00;102162.47;;;20.75;100.00
19236;BME280;9752;54.270;12.470;2023-07-13T09:30:20;102154.88;;;20.20;100.00
19236;BME280;9752;54.270;12.470;2023-07-13T09:35:26;102158.13;;;20.56;100.00
19236;BME280;9752;54.270;12.470;2023-07-13T09:40:36;102164.28;;;21.21;100.00
19236;BME280;9752;54.270;12.470;2023-07-13T09:45:45;102176.66;;;22.19;100.00
19236;BME280;9752;54.270;12.470;2023-07-13T09:50:47;102214.88;;;21.11;100.00
19236;BME280;9752;54.270;12.470;2023-07-13T09:55:49;102167.47;;;20.48;100.00
19236;BME280;9752;54.270;12.470;2023-07-13T10:00:58;102188.00;;;20.76;100.00
19236;BME280;9752;54.270;12.470;2023-07-13T10:06:10;102177.28;;;21.17;100.00
19236;BME280;9752;54.270;12.470;2023-07-13T10:11:18;102177.88;;;20.45;100.00
19236;BME280;9752;54.270;12.470;2023-07-13T10:16:24;102208.78;;;19.87;100.00
19236;BME280;9752;54.270;12.470;2023-07-13T10:21:30;102191.03;;;19.64;100.00
19236;BME280;9752;54.270;12.470;2023-07-13T10:26:34;102187.03;;;19.35;100.00
19236;BME280;9752;54.270;12.470;2023-07-13T10:31:38;102201.00;;;20.10;100.00
19236;BME280;9752;54.270;12.470;2023-07-13T10:36:42;102210.97;;;21.01;100.00
19236;BME280;9752;54.270;12.470;2023-07-13T10:41:45;102208.59;;;21.53;100.00
19236;BME280;9752;54.270;12.470;2023-07-13T10:46:50;102210.41;;;21.54;100.00
19236;BME280;9752;54.270;12.470;2023-07-13T10:51:51;102192.28;;;21.40;100.00
19236;BME280;9752;54.270;12.470;2023-07-13T10:57:07;102180.66;;;21.13;100.00
19236;BME280;9752;54.270;12.470;2023-07-13T11:02:22;102174.63;;;20.94;100.00
19236;BME280;9752;54.270;12.470;2023-07-13T11:07:26;102174.53;;;21.36;100.00
19236;BME280;9752;54.270;12.470;2023-07-13T11:12:49;102212.91;;;21.73;100.00
19236;BME280;9752;54.270;12.470;2023-07-13T11:17:54;102172.53;;;21.77;100.00
19236;BME280;9752;54.270;12.470;2023-07-13T11:23:09;102292.25;;;23.00;100.00
19236;BME280;9752;54.270;12.470;2023-07-13T11:28:22;102225.13;;;22.71;100.00
19236;BME280;9752;54.270;12.470;2023-07-13T11:33:28;102184.81;;;22.51;100.00
19236;BME280;9752;54.270;12.470;2023-07-13T11:38:33;102218.44;;;23.67;100.00
19236;BME280;9752;54.270;12.470;2023-07-13T11:43:36;102187.81;;;23.16;100.00
19236;BME280;9752;54.270;12.470;2023-07-13T11:48:39;102173.19;;;22.46;100.00
19236;BME280;9752;54.270;12.470;2023-07-13T11:53:47;102155.50;;;22.19;100.00
19236;BME280;9752;54.270;12.470;2023-07-13T11:58:51;102672.63;;;22.38;100.00
19236;BME280;9752;54.270;12.470;2023-07-13T12:03:55;102268.34;;;22.20;100.00
19236;BME280;9752;54.270;12.470;2023-07-13T12:08:58;102232.28;;;23.00;100.00
19236;BME280;9752;54.270;12.470;2023-07-13T12:14:00;102193.69;;;21.77;100.00
19236;BME280;9752;54.270;12.470;2023-07-13T12:19:09;102349.22;;;20.64;100.00
19236;BME280;9752;54.270;12.470;2023-07-13T12:24:19;102203.63;;;18.44;100.00
19236;BME280;9752;54.270;12.470;2023-07-13T12:29:23;102475.13;;;17.07;100.00
19236;BME280;9752;54.270;12.470;2023-07-13T12:34:26;102229.44;;;17.52;100.00
19236;BME280;9752;54.270;12.470;2023-07-13T12:39:32;102222.75;;;18.76;100.00
19236;BME280;9752;54.270;12.470;2023-07-13T12:44:40;102265.53;;;20.00;100.00
19236;BME280;9752;54.270;12.470;2023-07-13T12:49:48;102266.53;;;19.65;100.00
19236;BME280;9752;54.270;12.470;2023-07-13T12:54:55;102240.28;;;19.29;100.00
19236;BME280;9752;54.270;12.470;2023-07-13T12:59:58;102232.25;;;19.26;100.00
19236;BME280;9752;54.270;12.470;2023-07-13T13:05:01;102253.53;;;20.07;100.00
19236;BME280;9752;54.270;12.470;2023-07-13T13:10:11;102245.41;;;20.41;100.00
19236;BME280;9752;54.270;12.470;2023-07-13T13:15:14;102257.97;;;20.89;100.00
19236;BME280;9752;54.270;12.470;2023-07-13T13:20:20;102248.25;;;20.88;100.00
19236;BME280;9752;54.270;12.470;2023-07-13T13:25:21;102230.13;;;20.13;100.00
19236;BME280;9752;54.270;12.470;2023-07-13T13:30:23;102296.47;;;20.04;100.00
19236;BME280;9752;54.270;12.470;2023-07-13T13:35:26;102235.63;;;19.23;100.00
19236;BME280;9752;54.270;12.470;2023-07-13T13:40:29;102251.59;;;19.46;100.00
19236;BME280;9752;54.270;12.470;2023-07-13T13:45:31;102248.41;;;20.10;100.00
19236;BME280;9752;54.270;12.470;2023-07-13T13:50:34;102251.94;;;20.71;100.00
19236;BME280;9752;54.270;12.470;2023-07-13T13:55:36;102267.13;;;21.63;100.00
19236;BME280;9752;54.270;12.470;2023-07-13T14:00:38;102260.63;;;21.33;100.00
19236;BME280;9752;54.270;12.470;2023-07-13T14:05:41;102217.66;;;20.71;100.00
19236;BME280;9752;54.270;12.470;2023-07-13T14:10:43;102208.59;;;21.30;100.00
19236;BME280;9752;54.270;12.470;2023-07-13T14:15:46;102211.72;;;21.65;100.00
19236;BME280;9752;54.270;12.470;2023-07-13T14:20:49;102203.59;;;21.59;100.00
19236;BME280;9752;54.270;12.470;2023-07-13T14:25:52;102247.97;;;23.50;100.00
19236;BME280;9752;54.270;12.470;2023-07-13T14:30:54;102207.28;;;25.15;100.00
19236;BME280;9752;54.270;12.470;2023-07-13T14:35:57;102195.72;;;24.73;100.00
19236;BME280;9752;54.270;12.470;2023-07-13T14:40:58;102237.78;;;24.93;100.00
19236;BME280;9752;54.270;12.470;2023-07-13T14:46:00;102184.16;;;23.41;100.00
19236;BME280;9752;54.270;12.470;2023-07-13T14:51:03;102219.84;;;25.22;100.00
19236;BME280;9752;54.270;12.470;2023-07-13T14:56:10;102198.16;;;25.84;100.00
19236;BME280;9752;54.270;12.470;2023-07-13T15:01:12;102186.41;;;25.30;100.00
19236;BME280;9752;54.270;12.470;2023-07-13T15:06:16;102190.47;;;25.54;100.00
19236;BME280;9752;54.270;12.470;2023-07-13T15:11:19;102194.13;;;24.80;100.00
19236;BME280;9752;54.270;12.470;2023-07-13T15:16:24;102187.81;;;23.46;100.00
19236;BME280;9752;54.270;12.470;2023-07-13T15:21:28;102176.84;;;22.23;100.00
19236;BME280;9752;54.270;12.470;2023-07-13T15:26:34;102159.25;;;21.28;100.00
19236;BME280;9752;54.270;12.470;2023-07-13T15:31:36;102164.72;;;20.87;100.00
19236;BME280;9752;54.270;12.470;2023-07-13T15:36:41;102159.66;;;20.28;100.00
19236;BME280;9752;54.270;12.470;2023-07-13T15:41:43;102167.94;;;20.38;100.00
19236;BME280;9752;54.270;12.470;2023-07-13T15:46:46;102148.63;;;20.39;100.00
19236;BME280;9752;54.270;12.470;2023-07-13T15:51:49;102146.75;;;19.94;100.00
19236;BME280;9752;54.270;12.470;2023-07-13T15:56:52;102154.06;;;20.01;100.00
19236;BME280;9752;54.270;12.470;2023-07-13T16:01:54;102147.22;;;20.05;100.00
19236;BME280;9752;54.270;12.470;2023-07-13T16:06:57;102161.09;;;20.22;100.00
19236;BME280;9752;54.270;12.470;2023-07-13T16:11:59;102152.16;;;20.18;100.00
19236;BME280;9752;54.270;12.470;2023-07-13T16:17:01;102147.84;;;19.99;100.00
19236;BME280;9752;54.270;12.470;2023-07-13T16:22:05;102146.47;;;20.07;100.00
19236;BME280;9752;54.270;12.470;2023-07-13T16:27:08;102155.59;;;19.75;100.00
19236;BME280;9752;54.270;12.470;2023-07-13T16:32:12;102140.06;;;19.62;100.00
19236;BME280;9752;54.270;12.470;2023-07-13T16:37:18;102138.16;;;19.59;100.00
19236;BME280;9752;54.270;12.470;2023-07-13T16:42:21;102151.41;;;19.80;100.00
19236;BME280;9752;54.270;12.470;2023-07-13T16:47:23;102151.31;;;19.98;100.00
19236;BME280;9752;54.270;12.470;2023-07-13T16:52:26;102153.81;;;20.36;100.00
19236;BME280;9752;54.270;12.470;2023-07-13T16:57:32;102156.53;;;20.81;100.00
19236;BME280;9752;54.270;12.470;2023-07-13T17:02:35;102236.34;;;25.88;100.00
19236;BME280;9752;54.270;12.470;2023-07-13T17:07:40;102230.00;;;27.35;100.00
19236;BME280;9752;54.270;12.470;2023-07-13T17:12:43;102209.34;;;25.25;100.00
19236;BME280;9752;54.270;12.470;2023-07-13T17:17:46;102183.00;;;24.59;100.00
19236;BME280;9752;54.270;12.470;2023-07-13T17:22:50;102217.56;;;26.76;100.00
19236;BME280;9752;54.270;12.470;2023-07-13T17:27:52;102198.50;;;26.00;100.00
19236;BME280;9752;54.270;12.470;2023-07-13T17:32:54;102188.44;;;25.41;100.00
19236;BME280;9752;54.270;12.470;2023-07-13T17:37:58;102186.75;;;25.90;100.00
19236;BME280;9752;54.270;12.470;2023-07-13T17:43:00;102183.06;;;26.29;100.00
19236;BME280;9752;54.270;12.470;2023-07-13T17:48:03;102206.03;;;25.78;100.00
19236;BME280;9752;54.270;12.470;2023-07-13T17:53:12;102242.50;;;26.31;100.00
19236;BME280;9752;54.270;12.470;2023-07-13T17:58:15;102208.00;;;25.88;100.00
19236;BME280;9752;54.270;12.470;2023-07-13T18:03:23;102187.84;;;24.42;100.00
19236;BME280;9752;54.270;12.470;2023-07-13T18:08:30;102192.63;;;24.57;100.00
19236;BME280;9752;54.270;12.470;2023-07-13T18:13:33;102182.13;;;23.93;100.00
19236;BME280;9752;54.270;12.470;2023-07-13T18:18:40;102144.47;;;21.55;100.00
19236;BME280;9752;54.270;12.470;2023-07-13T18:23:43;102168.34;;;21.82;100.00
19236;BME280;9752;54.270;12.470;2023-07-13T18:28:46;102249.69;;;22.92;100.00
19236;BME280;9752;54.270;12.470;2023-07-13T18:33:50;102210.03;;;22.67;100.00
19236;BME280;9752;54.270;12.470;2023-07-13T18:38:55;102181.06;;;22.44;100.00
19236;BME280;9752;54.270;12.470;2023-07-13T18:43:58;102179.13;;;21.89;100.00
19236;BME280;9752;54.270;12.470;2023-07-13T18:49:00;102138.66;;;19.70;100.00
19236;BME280;9752;54.270;12.470;2023-07-13T18:54:08;102157.94;;;18.58;100.00
19236;BME280;9752;54.270;12.470;2023-07-13T18:59:12;102155.41;;;18.07;100.00
19236;BME280;9752;54.270;12.470;2023-07-13T19:04:27;102144.44;;;17.65;100.00
19236;BME280;9752;54.270;12.470;2023-07-13T19:09:30;102154.44;;;17.40;100.00
19236;BME280;9752;54.270;12.470;2023-07-13T19:14:32;102173.28;;;17.32;100.00
19236;BME280;9752;54.270;12.470;2023-07-13T19:19:33;102184.84;;;17.36;100.00
19236;BME280;9752;54.270;12.470;2023-07-13T19:24:37;102190.00;;;17.34;100.00
19236;BME280;9752;54.270;12.470;2023-07-13T19:29:40;102243.25;;;17.17;100.00
19236;BME280;9752;54.270;12.470;2023-07-13T19:34:41;102213.84;;;17.23;100.00
19236;BME280;9752;54.270;12.470;2023-07-13T19:39:44;102218.72;;;17.16;100.00
19236;BME280;9752;54.270;12.470;2023-07-13T19:44:47;102216.53;;;16.93;100.00
19236;BME280;9752;54.270;12.470;2023-07-13T19:49:48;102210.38;;;16.77;100.00
19236;BME280;9752;54.270;12.470;2023-07-13T19:54:54;102209.84;;;16.68;100.00
19236;BME280;9752;54.270;12.470;2023-07-13T19:59:56;102212.13;;;16.62;100.00
19236;BME280;9752;54.270;12.470;2023-07-13T20:04:59;102224.47;;;16.65;100.00
19236;BME280;9752;54.270;12.470;2023-07-13T20:10:20;102238.78;;;16.85;100.00
19236;BME280;9752;54.270;12.470;2023-07-13T20:15:24;102233.00;;;16.90;100.00
19236;BME280;9752;54.270;12.470;2023-07-13T20:20:30;102217.41;;;16.78;100.00
19236;BME280;9752;54.270;12.470;2023-07-13T20:25:33;102223.41;;;16.61;100.00
19236;BME280;9752;54.270;12.470;2023-07-13T20:30:37;102236.78;;;16.51;100.00
19236;BME280;9752;54.270;12.470;2023-07-13T20:35:39;102229.72;;;16.35;100.00
19236;BME280;9752;54.270;12.470;2023-07-13T20:40:43;102255.53;;;16.29;100.00
19236;BME280;9752;54.270;12.470;2023-07-13T20:45:45;102245.59;;;16.23;100.00
19236;BME280;9752;54.270;12.470;2023-07-13T20:50:48;102246.31;;;16.20;100.00
19236;BME280;9752;54.270;12.470;2023-07-13T20:55:53;102258.41;;;16.18;100.00
19236;BME280;9752;54.270;12.470;2023-07-13T21:00:54;102270.91;;;16.37;100.00
19236;BME280;9752;54.270;12.470;2023-07-13T21:06:06;102299.34;;;16.46;100.00
19236;BME280;9752;54.270;12.470;2023-07-13T21:11:14;102317.88;;;16.49;100.00
19236;BME280;9752;54.270;12.470;2023-07-13T21:16:19;102313.53;;;16.50;100.00
19236;BME280;9752;54.270;12.470;2023-07-13T21:21:22;102287.94;;;16.31;100.00
19236;BME280;9752;54.270;12.470;2023-07-13T21:26:26;102259.56;;;16.09;100.00
19236;BME280;9752;54.270;12.470;2023-07-13T21:31:31;102276.16;;;15.81;100.00
19236;BME280;9752;54.270;12.470;2023-07-13T21:36:34;102293.50;;;15.52;100.00
19236;BME280;9752;54.270;12.470;2023-07-13T21:41:37;102306.00;;;15.30;100.00
19236;BME280;9752;54.270;12.470;2023-07-13T21:46:39;102324.19;;;15.15;100.00
19236;BME280;9752;54.270;12.470;2023-07-13T21:51:40;102329.31;;;15.00;100.00
19236;BME280;9752;54.270;12.470;2023-07-13T21:56:44;102343.16;;;14.86;100.00
19236;BME280;9752;54.270;12.470;2023-07-13T22:01:46;102370.44;;;14.77;100.00
19236;BME280;9752;54.270;12.470;2023-07-13T22:06:48;102404.09;;;14.73;100.00
19236;BME280;9752;54.270;12.470;2023-07-13T22:11:51;102510.84;;;14.68;100.00
19236;BME280;9752;54.270;12.470;2023-07-13T22:16:54;102552.22;;;14.62;100.00
19236;BME280;9752;54.270;12.470;2023-07-13T22:21:57;102589.53;;;14.49;100.00
19236;BME280;9752;54.270;12.470;2023-07-13T22:27:00;102586.94;;;14.37;100.00
19236;BME280;9752;54.270;12.470;2023-07-13T22:32:03;102596.38;;;14.35;100.00
19236;BME280;9752;54.270;12.470;2023-07-13T22:37:07;102760.94;;;14.25;100.00
19236;BME280;9752;54.270;12.470;2023-07-13T22:42:11;102878.88;;;14.31;100.00
19236;BME280;9752;54.270;12.470;2023-07-13T22:47:15;102854.84;;;14.47;100.00
19236;BME280;9752;54.270;12.470;2023-07-13T22:52:17;102880.53;;;14.53;100.00
19236;BME280;9752;54.270;12.470;2023-07-13T22:57:20;102893.72;;;14.54;100.00
19236;BME280;9752;54.270;12.470;2023-07-13T23:02:21;102901.69;;;14.34;100.00
19236;BME280;9752;54.270;12.470;2023-07-13T23:07:23;102929.38;;;14.10;100.00
19236;BME280;9752;54.270;12.470;2023-07-13T23:12:27;102941.81;;;14.02;100.00
19236;BME280;9752;54.270;12.470;2023-07-13T23:17:30;102960.16;;;14.14;100.00
19236;BME280;9752;54.270;12.470;2023-07-13T23:22:32;103057.34;;;14.11;100.00
19236;BME280;9752;54.270;12.470;2023-07-13T23:27:35;103082.41;;;14.09;100.00
19236;BME280;9752;54.270;12.470;2023-07-13T23:32:36;103105.38;;;14.13;100.00
19236;BME280;9752;54.270;12.470;2023-07-13T23:37:38;103104.59;;;14.14;100.00
19236;BME280;9752;54.270;12.470;2023-07-13T23:42:42;103140.25;;;14.14;100.00
19236;BME280;9752;54.270;12.470;2023-07-13T23:47:46;103132.69;;;14.06;100.00
19236;BME280;9752;54.270;12.470;2023-07-13T23:52:48;103173.66;;;14.08;100.00
19236;BME280;9752;54.270;12.470;2023-07-13T23:57:52;103147.16;;;14.03;100.00
